Time;durP1;ratioP1;P1;durP2;ratioP2;P2;SDS_P1;SDS_P2;PMS_P1;PMS_P2;Temp;Humidity;BMP_temperature;BMP_pressure;BME280_temperature;BME280_humidity;BME280_pressure;Samples;Min_cycle;Max_cycle;Signal;HPM_P1;HPM_P2
2021/10/18 00:00:10;;;;;;;5.68;3.95;;;12.80;99.90;;;;;;5012197;28;20069;-74
2021/10/18 00:02:36;;;;;;;5.93;3.50;;;12.80;99.90;;;;;;5012149;28;20375;-74
2021/10/18 00:05:03;;;;;;;5.00;3.42;;;12.90;99.90;;;;;;5012118;28;20038;-73
2021/10/18 00:07:28;;;;;;;4.35;3.53;;;12.90;99.90;;;;;;5012050;28;20026;-72
2021/10/18 00:09:54;;;;;;;6.43;3.42;;;13.00;99.90;;;;;;5011941;28;20025;-74
2021/10/18 00:12:20;;;;;;;8.30;3.75;;;13.00;99.90;;;;;;5011059;28;20030;-75
2021/10/18 00:14:45;;;;;;;6.25;3.60;;;12.90;99.90;;;;;;5011732;28;20037;-74
2021/10/18 00:17:11;;;;;;;5.55;3.20;;;12.90;99.90;;;;;;5012273;28;20081;-73
2021/10/18 00:19:37;;;;;;;7.47;3.90;;;12.90;99.90;;;;;;5011903;28;20029;-75
2021/10/18 00:22:03;;;;;;;4.60;3.25;;;12.80;99.90;;;;;;5011807;28;20042;-72
2021/10/18 00:24:28;;;;;;;5.32;4.15;;;12.80;99.90;;;;;;5011655;28;20038;-75
2021/10/18 00:26:54;;;;;;;5.20;3.53;;;12.80;99.90;;;;;;5012379;28;20030;-73
2021/10/18 00:29:20;;;;;;;4.60;3.35;;;12.80;99.90;;;;;;5012272;28;20092;-74
2021/10/18 00:31:46;;;;;;;4.25;3.28;;;12.80;99.90;;;;;;5014562;28;20363;-73
2021/10/18 00:34:12;;;;;;;4.32;3.10;;;12.70;99.90;;;;;;5015688;28;20048;-74
2021/10/18 00:36:38;;;;;;;4.43;3.70;;;12.70;99.90;;;;;;5015258;28;20018;-74
2021/10/18 00:39:03;;;;;;;4.10;3.17;;;12.70;99.90;;;;;;5015788;28;20033;-73
2021/10/18 00:41:29;;;;;;;4.97;3.80;;;12.70;99.90;;;;;;5014723;28;20038;-73
2021/10/18 00:43:56;;;;;;;5.97;3.50;;;12.70;99.90;;;;;;5015944;28;20080;-74
2021/10/18 00:46:23;;;;;;;7.18;3.72;;;12.60;99.90;;;;;;5016048;28;20414;-73
2021/10/18 00:48:53;;;;;;;5.72;3.25;;;12.60;99.90;;;;;;5015434;28;20069;-74
2021/10/18 00:51:22;;;;;;;7.75;3.60;;;12.60;99.90;;;;;;5015983;28;20454;-74
2021/10/18 00:53:49;;;;;;;3.85;3.28;;;12.60;99.90;;;;;;5015630;28;20125;-74
2021/10/18 00:56:15;;;;;;;5.30;3.17;;;12.60;99.90;;;;;;5015098;28;20060;-75
2021/10/18 00:58:42;;;;;;;4.75;3.25;;;12.50;99.90;;;;;;5015650;28;20542;-74
2021/10/18 01:01:09;;;;;;;6.00;3.30;;;12.50;99.90;;;;;;5015350;28;20022;-74
2021/10/18 01:03:35;;;;;;;4.32;3.10;;;12.50;99.90;;;;;;5015402;28;20041;-74
2021/10/18 01:06:01;;;;;;;4.28;3.15;;;12.50;99.90;;;;;;5015145;28;20049;-73
2021/10/18 01:08:27;;;;;;;5.63;3.30;;;12.50;99.90;;;;;;5014883;28;20478;-74
2021/10/18 01:10:53;;;;;;;6.05;3.38;;;12.50;99.90;;;;;;5011641;28;20030;-73
2021/10/18 01:13:18;;;;;;;4.93;3.20;;;12.50;99.90;;;;;;5015169;28;20042;-75
2021/10/18 01:15:44;;;;;;;3.70;3.25;;;12.50;99.90;;;;;;5015033;28;20386;-72
2021/10/18 01:18:10;;;;;;;4.78;3.55;;;12.60;99.90;;;;;;5014930;28;20375;-74
2021/10/18 01:20:39;;;;;;;4.28;3.20;;;12.60;99.90;;;;;;5014744;28;20049;-73
2021/10/18 01:23:06;;;;;;;9.30;3.40;;;12.60;99.90;;;;;;5014225;28;20037;-74
2021/10/18 01:25:32;;;;;;;3.05;2.72;;;12.60;99.90;;;;;;5013240;28;20386;-75
2021/10/18 01:27:58;;;;;;;4.90;3.13;;;12.60;99.90;;;;;;5014783;28;20061;-74
2021/10/18 01:30:25;;;;;;;3.30;2.75;;;12.60;99.90;;;;;;5014622;28;20065;-74
2021/10/18 01:32:51;;;;;;;5.72;3.45;;;12.60;99.90;;;;;;5029829;28;20030;-74
2021/10/18 01:35:17;;;;;;;3.53;2.60;;;12.50;99.90;;;;;;5029839;28;20088;-73
2021/10/18 01:37:43;;;;;;;4.70;3.05;;;12.50;99.90;;;;;;5029826;28;20030;-73
2021/10/18 01:40:12;;;;;;;5.38;3.20;;;12.50;99.90;;;;;;5014654;28;20026;-75
2021/10/18 01:42:38;;;;;;;5.13;3.30;;;12.50;99.90;;;;;;5013664;28;20040;-74
2021/10/18 01:45:06;;;;;;;4.80;3.08;;;12.40;99.90;;;;;;5014064;28;20030;-73
2021/10/18 01:47:31;;;;;;;4.78;3.25;;;12.40;99.90;;;;;;5014498;28;20470;-73
2021/10/18 01:49:57;;;;;;;4.40;3.00;;;12.40;99.90;;;;;;5014182;28;20081;-73
2021/10/18 01:52:23;;;;;;;5.25;3.53;;;12.40;99.90;;;;;;5014845;28;20406;-73
2021/10/18 01:54:49;;;;;;;4.32;2.85;;;12.40;99.90;;;;;;5029804;28;20038;-74
2021/10/18 01:57:16;;;;;;;4.90;2.95;;;12.40;99.90;;;;;;5029159;28;20038;-74
2021/10/18 01:59:42;;;;;;;4.90;3.58;;;12.40;99.90;;;;;;5014065;28;20030;-74
2021/10/18 02:02:07;;;;;;;6.25;3.20;;;12.30;99.90;;;;;;5014208;28;20533;-74
2021/10/18 02:04:33;;;;;;;3.08;2.60;;;12.20;99.90;;;;;;5013936;28;20038;-74
2021/10/18 02:06:59;;;;;;;4.15;3.10;;;12.20;99.90;;;;;;5013007;28;20057;-74
2021/10/18 02:09:24;;;;;;;4.57;3.30;;;12.20;99.90;;;;;;5013085;28;20053;-74
2021/10/18 02:11:50;;;;;;;6.40;3.35;;;12.20;99.90;;;;;;5014125;28;20470;-72
2021/10/18 02:14:16;;;;;;;5.30;3.60;;;12.20;99.90;;;;;;5028912;28;20450;-74
2021/10/18 02:16:42;;;;;;;4.25;3.53;;;12.20;99.90;;;;;;5012060;28;20033;-74
2021/10/18 02:19:07;;;;;;;3.78;3.38;;;12.20;99.90;;;;;;5013280;28;20570;-74
2021/10/18 02:22:04;;;;;;;5.18;3.60;;;12.20;99.90;;;;;;5013582;28;20099;-74
2021/10/18 02:24:30;;;;;;;5.07;3.38;;;12.20;99.90;;;;;;5012333;28;20599;-74
2021/10/18 02:26:55;;;;;;;7.90;4.03;;;12.20;99.90;;;;;;5013542;28;20038;-74
2021/10/18 02:29:21;;;;;;;5.18;3.67;;;12.10;99.90;;;;;;5013208;28;20045;-75
2021/10/18 02:31:47;;;;;;;6.57;3.40;;;12.10;99.90;;;;;;5013508;28;20030;-73
2021/10/18 02:34:12;;;;;;;4.85;3.80;;;12.10;99.90;;;;;;5013733;28;20065;-74
2021/10/18 02:36:38;;;;;;;4.35;3.45;;;12.10;99.90;;;;;;5013964;28;20033;-74
2021/10/18 02:39:04;;;;;;;5.18;3.50;;;12.10;99.90;;;;;;5013142;28;20033;-74
2021/10/18 02:41:29;;;;;;;5.35;3.70;;;12.00;99.90;;;;;;5012912;28;20042;-73
2021/10/18 02:43:55;;;;;;;6.57;3.63;;;12.10;99.90;;;;;;5013057;28;20132;-73
2021/10/18 02:46:21;;;;;;;4.03;3.03;;;12.10;99.90;;;;;;5013472;28;20046;-74
2021/10/18 02:48:47;;;;;;;5.10;3.78;;;12.10;99.90;;;;;;5013173;28;20026;-74
2021/10/18 02:51:12;;;;;;;10.73;3.78;;;12.10;99.90;;;;;;5013148;28;20526;-75
2021/10/18 02:53:38;;;;;;;3.85;3.03;;;12.10;99.90;;;;;;5012891;28;20042;-75
2021/10/18 02:56:04;;;;;;;3.15;2.85;;;12.10;99.90;;;;;;5013342;28;20026;-74
2021/10/18 02:58:29;;;;;;;5.93;3.63;;;12.10;99.90;;;;;;5013281;28;20042;-74
2021/10/18 03:00:55;;;;;;;5.22;3.47;;;12.10;99.90;;;;;;5012347;28;20044;-74
2021/10/18 03:03:21;;;;;;;7.88;5.45;;;12.10;99.90;;;;;;5013288;28;20022;-74
2021/10/18 03:05:46;;;;;;;7.13;4.95;;;12.10;99.90;;;;;;5013158;28;20109;-73
2021/10/18 03:08:12;;;;;;;7.70;5.72;;;12.10;99.90;;;;;;5013075;28;20033;-75
2021/10/18 03:10:41;;;;;;;8.07;4.88;;;12.00;99.90;;;;;;5012699;28;20037;-74
2021/10/18 03:13:07;;;;;;;5.32;3.60;;;12.10;99.90;;;;;;5012651;28;20025;-75
2021/10/18 03:15:33;;;;;;;4.80;4.05;;;12.10;99.90;;;;;;5012945;28;20030;-74
2021/10/18 03:17:58;;;;;;;4.50;3.50;;;12.00;99.90;;;;;;5012823;28;20072;-73
2021/10/18 03:20:24;;;;;;;4.43;3.30;;;12.00;99.90;;;;;;5007614;28;20031;-74
2021/10/18 03:22:50;;;;;;;7.53;3.75;;;12.00;99.90;;;;;;5005180;28;20033;-75
2021/10/18 03:25:16;;;;;;;5.38;3.33;;;12.10;99.90;;;;;;5012516;28;20441;-75
2021/10/18 03:27:41;;;;;;;5.22;3.42;;;12.00;99.90;;;;;;5012680;28;20096;-74
2021/10/18 03:30:08;;;;;;;4.80;3.70;;;11.90;99.90;;;;;;5011741;28;20030;-74
2021/10/18 03:32:34;;;;;;;6.88;3.65;;;11.90;99.90;;;;;;5012456;28;20029;-74
2021/10/18 03:34:59;;;;;;;6.68;3.42;;;11.90;99.90;;;;;;5012093;28;20034;-74
2021/10/18 03:37:25;;;;;;;5.85;3.65;;;11.90;99.90;;;;;;5012217;28;20026;-72
2021/10/18 03:39:51;;;;;;;5.43;3.30;;;11.90;99.90;;;;;;5012880;28;20509;-74
2021/10/18 03:42:16;;;;;;;5.28;3.50;;;11.90;99.90;;;;;;5012112;28;20042;-74
2021/10/18 03:44:42;;;;;;;6.72;3.47;;;11.90;99.90;;;;;;5012326;28;20030;-74
2021/10/18 03:47:08;;;;;;;7.28;3.50;;;11.90;99.90;;;;;;5026621;28;20092;-74
2021/10/18 03:49:34;;;;;;;7.32;3.40;;;11.90;99.90;;;;;;5012565;28;20052;-74
2021/10/18 03:51:59;;;;;;;5.03;3.70;;;11.90;99.90;;;;;;5012580;28;20161;-75
2021/10/18 03:54:25;;;;;;;4.75;3.65;;;11.90;99.90;;;;;;5012027;28;20101;-75
2021/10/18 03:56:51;;;;;;;5.38;3.72;;;11.90;99.90;;;;;;5011982;28;20069;-74
2021/10/18 03:59:16;;;;;;;9.15;3.58;;;11.90;99.90;;;;;;4998130;28;20045;-73
2021/10/18 04:01:42;;;;;;;7.40;3.95;;;11.90;99.90;;;;;;5012136;28;20093;-74
2021/10/18 04:04:08;;;;;;;4.95;3.65;;;11.90;99.90;;;;;;5012204;28;20030;-74
2021/10/18 04:06:33;;;;;;;5.63;3.90;;;11.90;99.90;;;;;;5016197;28;20029;-74
2021/10/18 04:08:59;;;;;;;4.78;3.95;;;11.80;99.90;;;;;;5015798;28;20057;-74
2021/10/18 04:11:25;;;;;;;4.93;3.90;;;11.90;99.90;;;;;;5030590;28;20497;-73
2021/10/18 04:13:51;;;;;;;5.03;3.65;;;11.90;99.90;;;;;;5016534;28;20029;-71
2021/10/18 04:16:17;;;;;;;4.32;3.33;;;11.80;99.90;;;;;;5016304;28;20033;-72
2021/10/18 04:18:42;;;;;;;7.07;3.60;;;11.80;99.90;;;;;;5015978;28;20056;-75
2021/10/18 04:21:08;;;;;;;6.90;3.70;;;11.80;99.90;;;;;;5015681;28;20026;-73
2021/10/18 04:23:34;;;;;;;5.55;3.55;;;11.80;99.90;;;;;;5015825;28;20470;-74
2021/10/18 04:26:00;;;;;;;5.57;3.92;;;11.80;99.90;;;;;;5015956;28;20026;-74
2021/10/18 04:28:26;;;;;;;5.78;3.78;;;11.90;99.90;;;;;;5015921;28;20537;-73
2021/10/18 04:30:51;;;;;;;8.45;4.05;;;11.90;99.90;;;;;;5015473;28;20022;-75
2021/10/18 04:33:17;;;;;;;5.80;3.83;;;11.90;99.90;;;;;;5015681;28;20449;-74
2021/10/18 04:35:43;;;;;;;12.50;4.05;;;11.90;99.90;;;;;;5016100;28;20036;-74
2021/10/18 04:38:09;;;;;;;4.97;3.40;;;11.90;99.90;;;;;;5014864;28;20034;-74
2021/10/18 04:40:34;;;;;;;4.72;3.40;;;11.80;99.90;;;;;;5015008;28;20109;-74
2021/10/18 04:43:00;;;;;;;8.60;3.78;;;11.80;99.90;;;;;;5015078;28;20457;-75
2021/10/18 04:45:26;;;;;;;4.40;3.25;;;11.90;99.90;;;;;;5014190;28;20037;-73
2021/10/18 04:47:52;;;;;;;7.13;3.95;;;11.90;99.90;;;;;;5015701;28;20025;-73
2021/10/18 04:50:21;;;;;;;5.63;4.05;;;11.90;99.90;;;;;;5002892;28;20165;-74
2021/10/18 04:52:47;;;;;;;4.43;3.38;;;11.90;99.90;;;;;;5014642;28;20117;-74
2021/10/18 04:55:13;;;;;;;4.43;3.70;;;11.80;99.90;;;;;;5014390;28;20038;-75
2021/10/18 04:57:59;;;;;;;5.50;3.50;;;11.80;99.90;;;;;;5011625;28;20029;-75
2021/10/18 05:00:28;;;;;;;7.57;3.97;;;11.80;99.90;;;;;;5013742;28;20030;-75
2021/10/18 05:02:54;;;;;;;6.50;3.90;;;11.80;99.90;;;;;;5029855;28;20034;-75
2021/10/18 05:05:20;;;;;;;6.20;3.80;;;11.80;99.90;;;;;;5015072;28;20048;-74
2021/10/18 05:07:58;;;;;;;7.18;3.63;;;11.80;99.90;;;;;;5015233;28;20109;-73
2021/10/18 05:10:24;;;;;;;3.55;3.15;;;11.80;99.90;;;;;;5015294;28;20037;-74
2021/10/18 05:12:49;;;;;;;7.13;3.25;;;11.90;99.90;;;;;;5013451;28;20022;-74
2021/10/18 05:15:15;;;;;;;7.88;3.78;;;12.00;99.90;;;;;;5009885;28;20037;-75
2021/10/18 05:17:41;;;;;;;4.82;3.30;;;12.10;99.90;;;;;;5010870;28;20034;-74
2021/10/18 05:20:07;;;;;;;5.07;4.03;;;12.10;99.90;;;;;;5015031;28;20052;-73
2021/10/18 05:22:32;;;;;;;6.53;2.90;;;12.10;99.90;;;;;;5005088;28;20064;-75
2021/10/18 05:24:58;;;;;;;6.10;3.80;;;12.00;99.90;;;;;;5029710;28;20038;-76
2021/10/18 05:27:23;;;;;;;4.43;3.40;;;12.00;99.90;;;;;;5010180;28;20118;-75
2021/10/18 05:29:49;;;;;;;7.22;3.65;;;12.00;99.90;;;;;;5008628;28;20101;-73
2021/10/18 05:32:15;;;;;;;7.07;3.20;;;12.00;99.90;;;;;;5006347;28;20026;-74
2021/10/18 05:34:40;;;;;;;7.90;4.07;;;12.00;99.90;;;;;;5013658;28;20100;-74
2021/10/18 05:37:06;;;;;;;7.30;4.20;;;12.10;99.90;;;;;;5012665;28;20414;-71
2021/10/18 05:39:32;;;;;;;7.85;3.58;;;12.10;99.90;;;;;;5014485;28;20046;-74
2021/10/18 05:41:57;;;;;;;3.80;2.88;;;12.10;99.90;;;;;;5013429;28;20073;-75
2021/10/18 05:44:23;;;;;;;9.25;3.88;;;12.20;99.90;;;;;;5013847;28;20038;-74
2021/10/18 05:46:49;;;;;;;7.10;3.80;;;12.20;99.90;;;;;;5012581;28;20065;-74
2021/10/18 05:49:15;;;;;;;8.77;4.22;;;12.30;99.90;;;;;;5014718;28;20061;-74
2021/10/18 05:51:40;;;;;;;7.57;3.75;;;12.30;99.90;;;;;;5013560;28;20467;-74
2021/10/18 05:54:07;;;;;;;6.63;3.50;;;12.30;99.90;;;;;;5012699;28;20038;-75
2021/10/18 05:56:33;;;;;;;6.65;4.00;;;12.50;99.90;;;;;;5014013;28;20088;-75
2021/10/18 05:58:59;;;;;;;5.82;3.85;;;12.60;99.90;;;;;;5013613;28;20045;-75
2021/10/18 06:01:25;;;;;;;9.18;4.32;;;12.80;99.90;;;;;;5014183;28;20038;-73
2021/10/18 06:03:51;;;;;;;8.30;3.83;;;13.00;99.90;;;;;;5013635;28;20132;-74
2021/10/18 06:06:17;;;;;;;8.48;4.10;;;13.20;99.90;;;;;;5013768;28;20103;-75
2021/10/18 06:08:43;;;;;;;11.13;4.28;;;13.50;99.90;;;;;;5014621;28;20113;-75
2021/10/18 06:11:10;;;;;;;6.85;3.67;;;13.90;99.90;;;;;;5014460;28;20025;-74
2021/10/18 06:13:35;;;;;;;8.10;3.67;;;14.20;99.90;;;;;;5014660;28;20040;-74
2021/10/18 06:16:01;;;;;;;21.13;3.75;;;14.40;99.90;;;;;;5014286;28;20372;-73
2021/10/18 06:18:27;;;;;;;10.20;3.70;;;14.30;99.90;;;;;;5013327;28;20018;-71
2021/10/18 06:20:54;;;;;;;6.50;3.53;;;14.40;99.90;;;;;;5013461;28;20405;-74
2021/10/18 06:23:21;;;;;;;6.47;3.55;;;14.60;99.90;;;;;;5014169;28;20484;-72
2021/10/18 06:25:48;;;;;;;14.45;3.92;;;14.80;99.90;;;;;;5013692;28;20382;-75
2021/10/18 06:28:14;;;;;;;10.07;4.25;;;15.20;99.90;;;;;;5028624;28;20037;-75
2021/10/18 06:30:41;;;;;;;10.80;3.90;;;15.50;99.90;;;;;;5013899;28;20052;-74
2021/10/18 06:33:07;;;;;;;9.85;4.28;;;15.60;99.90;;;;;;5013952;28;20034;-74
2021/10/18 06:35:34;;;;;;;12.10;4.60;;;15.70;99.90;;;;;;5013487;28;20041;-74
2021/10/18 06:38:00;;;;;;;5.78;3.83;;;15.80;99.90;;;;;;5013638;28;20066;-76
2021/10/18 06:40:26;;;;;;;5.90;3.65;;;15.90;99.80;;;;;;5013303;28;20084;-76
2021/10/18 06:42:52;;;;;;;7.72;3.78;;;16.10;99.10;;;;;;5013493;28;20434;-75
2021/10/18 06:45:18;;;;;;;7.00;3.42;;;16.50;98.80;;;;;;5013524;28;20025;-75
2021/10/18 06:47:44;;;;;;;7.57;3.38;;;16.80;98.20;;;;;;5013104;28;20474;-75
2021/10/18 06:50:10;;;;;;;6.38;3.42;;;17.00;97.50;;;;;;5013463;28;20053;-73
2021/10/18 06:52:39;;;;;;;4.75;3.20;;;16.90;97.50;;;;;;5013600;28;20030;-74
2021/10/18 06:55:07;;;;;;;4.68;3.15;;;16.90;97.80;;;;;;5013684;28;20615;-75
2021/10/18 06:57:33;;;;;;;9.55;4.10;;;17.20;97.70;;;;;;5013259;28;20113;-74
2021/10/18 06:59:59;;;;;;;6.05;3.55;;;17.80;97.10;;;;;;5010999;28;20041;-75
2021/10/18 07:02:26;;;;;;;10.57;3.47;;;18.70;96.50;;;;;;5011897;28;20030;-76
2021/10/18 07:04:52;;;;;;;7.72;3.15;;;19.90;94.60;;;;;;5028452;28;20037;-77
2021/10/18 07:07:18;;;;;;;5.70;3.28;;;21.00;93.40;;;;;;5014107;28;20034;-76
2021/10/18 07:09:44;;;;;;;18.45;3.75;;;21.70;92.30;;;;;;5011969;28;20088;-76
2021/10/18 07:12:10;;;;;;;13.05;3.38;;;22.00;91.90;;;;;;5013309;28;20486;-75
2021/10/18 07:14:36;;;;;;;11.82;3.78;;;22.30;90.90;;;;;;5009949;28;20038;-75
2021/10/18 07:17:03;;;;;;;9.85;3.65;;;22.10;90.70;;;;;;5000455;28;20528;-75
2021/10/18 07:19:29;;;;;;;6.40;3.42;;;21.80;90.70;;;;;;5013256;28;20034;-76
2021/10/18 07:21:55;;;;;;;5.95;3.22;;;21.60;91.00;;;;;;5013359;28;20029;-76
2021/10/18 07:24:21;;;;;;;7.07;3.10;;;21.30;91.40;;;;;;5013432;28;20030;-76
2021/10/18 07:26:49;;;;;;;13.15;3.35;;;21.30;91.30;;;;;;5013384;28;20030;-75
2021/10/18 07:29:16;;;;;;;5.35;3.15;;;21.20;91.10;;;;;;5013359;28;20545;-75
2021/10/18 07:31:42;;;;;;;5.38;3.47;;;21.00;91.30;;;;;;5028509;28;20469;-75
2021/10/18 07:34:13;;;;;;;4.63;2.80;;;20.80;91.50;;;;;;5013152;28;20105;-75
2021/10/18 07:36:49;;;;;;;4.30;3.05;;;20.50;91.30;;;;;;5013005;28;20066;-75
2021/10/18 07:39:21;;;;;;;4.20;2.92;;;20.10;92.10;;;;;;5012086;28;20049;-73
2021/10/18 07:41:48;;;;;;;4.78;2.95;;;19.70;92.40;;;;;;5027649;28;20141;-76
2021/10/18 07:44:14;;;;;;;5.03;2.92;;;19.60;92.90;;;;;;5012853;28;20105;-74
2021/10/18 07:46:40;;;;;;;7.97;3.53;;;19.40;93.40;;;;;;5012928;28;20065;-75
2021/10/18 07:49:07;;;;;;;5.85;3.50;;;19.30;93.40;;;;;;5012792;28;20070;-76
2021/10/18 07:51:33;;;;;;;10.02;3.50;;;19.20;93.90;;;;;;5012231;28;20065;-75
2021/10/18 07:53:59;;;;;;;5.90;3.72;;;19.30;93.90;;;;;;5011193;28;20050;-74
2021/10/18 07:56:24;;;;;;;6.28;2.80;;;19.30;94.00;;;;;;5008942;28;20109;-76
2021/10/18 07:58:50;;;;;;;5.20;3.70;;;19.30;94.10;;;;;;5007201;28;20038;-75
2021/10/18 08:01:16;;;;;;;10.57;3.63;;;19.10;94.10;;;;;;5001997;28;20030;-77
2021/10/18 08:03:41;;;;;;;6.18;3.10;;;19.00;94.20;;;;;;4999038;28;20096;-77
2021/10/18 08:06:07;;;;;;;9.38;3.67;;;19.00;94.10;;;;;;5005506;28;20030;-75
2021/10/18 08:08:42;;;;;;;11.00;4.20;;;18.90;94.20;;;;;;4999332;28;20444;-75
2021/10/18 08:11:08;;;;;;;6.47;3.10;;;19.00;94.50;;;;;;5012399;28;20034;-75
2021/10/18 08:13:33;;;;;;;5.70;3.50;;;19.10;94.00;;;;;;5008078;28;20156;-75
2021/10/18 08:15:59;;;;;;;4.38;3.25;;;19.20;93.90;;;;;;5000715;28;20038;-76
2021/10/18 08:18:24;;;;;;;7.88;3.53;;;19.40;93.80;;;;;;5008897;28;20022;-77
2021/10/18 08:20:50;;;;;;;9.07;3.35;;;19.60;93.20;;;;;;5008756;28;20214;-76
2021/10/18 08:23:16;;;;;;;4.80;3.33;;;19.90;93.20;;;;;;5005785;28;20156;-76
2021/10/18 08:25:41;;;;;;;5.38;3.28;;;20.10;92.70;;;;;;5008270;28;20064;-75
2021/10/18 08:28:08;;;;;;;4.68;3.42;;;20.10;92.70;;;;;;5008147;28;20115;-77
2021/10/18 08:30:34;;;;;;;5.93;3.28;;;20.30;93.10;;;;;;5005986;28;20097;-76
2021/10/18 08:32:59;;;;;;;7.43;2.90;;;20.70;92.60;;;;;;5001180;28;20035;-76
2021/10/18 08:35:25;;;;;;;6.05;2.90;;;21.70;91.40;;;;;;5007724;28;20073;-75
2021/10/18 08:40:41;;;;;;;5.07;3.20;;;23.90;88.70;;;;;;5002796;28;20049;-74
2021/10/18 08:45:32;;;;;;;5.45;3.05;;;24.90;85.70;;;;;;5001844;28;20150;-76
2021/10/18 08:47:58;;;;;;;5.45;3.50;;;25.90;82.40;;;;;;5001290;28;20099;-75
2021/10/18 08:50:24;;;;;;;12.90;3.47;;;27.20;80.70;;;;;;5011034;28;20407;-75
2021/10/18 08:52:51;;;;;;;9.68;2.90;;;28.20;77.50;;;;;;5014494;28;20025;-74
2021/10/18 08:55:16;;;;;;;7.53;3.03;;;29.20;75.10;;;;;;5013915;28;20042;-74
2021/10/18 08:57:42;;;;;;;14.35;4.03;;;30.30;72.60;;;;;;5013882;28;20034;-78
2021/10/18 09:00:50;;;;;;;4.88;3.17;;;31.00;71.90;;;;;;5011843;28;20021;-77
2021/10/18 09:03:25;;;;;;;4.18;2.72;;;30.70;70.00;;;;;;5006635;28;20057;-74
2021/10/18 09:06:07;;;;;;;7.28;3.17;;;30.20;69.40;;;;;;4999964;28;20038;-77
2021/10/18 09:08:33;;;;;;;;;;;29.30;69.30;;;;;;5003454;28;20034;-77
2021/10/18 09:11:02;;;;;;;15.55;3.85;;;28.60;71.40;;;;;;5011900;28;20281;-76
2021/10/18 09:13:28;;;;;;;6.90;4.18;;;28.40;73.90;;;;;;5006540;28;20069;-76
2021/10/18 09:15:54;;;;;;;11.52;4.75;;;28.40;74.40;;;;;;5003814;28;20690;-76
2021/10/18 09:18:19;;;;;;;20.85;4.38;;;28.60;73.80;;;;;;5001530;28;20398;-75
2021/10/18 09:20:46;;;;;;;10.82;4.22;;;28.80;73.30;;;;;;5011482;28;20553;-76
2021/10/18 09:23:31;;;;;;;14.05;4.32;;;28.80;73.10;;;;;;5006849;28;20026;-76
2021/10/18 09:26:06;;;;;;;9.32;4.20;;;29.10;72.60;;;;;;5010540;28;20486;-76
2021/10/18 09:28:32;;;;;;;17.73;4.93;;;29.90;71.70;;;;;;5014390;28;20069;-78
2021/10/18 09:30:58;;;;;;;18.25;4.55;;;30.50;70.40;;;;;;5005330;28;20089;-76
2021/10/18 09:33:37;;;;;;;17.75;5.22;;;31.10;69.70;;;;;;5013570;28;20033;-77
2021/10/18 09:36:06;;;;;;;9.68;3.72;;;30.90;69.00;;;;;;5014050;28;20044;-77
2021/10/18 09:38:32;;;;;;;7.63;3.78;;;30.50;69.80;;;;;;5008568;28;20026;-77
2021/10/18 09:41:00;;;;;;;8.77;4.10;;;30.50;70.30;;;;;;5013557;28;20517;-75
2021/10/18 09:45:58;;;;;;;8.80;4.05;;;32.40;67.80;;;;;;5007076;28;20046;-75
2021/10/18 10:53:58;;;;;;;8.55;3.78;;;23.80;88.60;;;;;;5014830;28;20030;-75
2021/10/18 10:56:30;;;;;;;7.75;3.70;;;23.90;88.70;;;;;;5016465;28;20105;-77
2021/10/18 10:59:07;;;;;;;;;;;23.80;88.90;;;;;;5009729;28;20497;-77
2021/10/18 11:01:44;;;;;;;10.07;3.63;;;23.70;89.50;;;;;;5002767;28;19910;-77
2021/10/18 11:04:31;;;;;;;4.28;3.25;;;23.50;89.90;;;;;;5007634;28;20026;-76
2021/10/18 11:07:10;;;;;;;7.22;2.90;;;23.50;90.30;;;;;;5011862;28;20030;-77
2021/10/18 11:09:52;;;;;;;4.70;3.47;;;23.40;90.40;;;;;;5007524;28;20379;-77
2021/10/18 11:12:26;;;;;;;10.45;3.65;;;23.30;90.90;;;;;;5012952;28;20034;-76
2021/10/18 11:15:03;;;;;;;5.97;3.22;;;23.00;91.30;;;;;;5012889;28;20046;-76
2021/10/18 11:17:32;;;;;;;5.95;3.40;;;23.10;91.50;;;;;;5009357;28;20092;-75
2021/10/18 11:20:03;;;;;;;4.90;3.28;;;23.10;91.30;;;;;;5026524;28;20553;-76
2021/10/18 11:22:33;;;;;;;3.15;2.75;;;22.80;91.50;;;;;;5011857;28;20466;-76
2021/10/18 11:24:59;;;;;;;5.95;3.47;;;22.70;92.00;;;;;;5004209;28;20034;-76
2021/10/18 11:27:31;;;;;;;6.75;3.20;;;22.70;92.10;;;;;;5007412;28;20615;-76
2021/10/18 11:29:59;;;;;;;11.80;3.40;;;22.70;93.30;;;;;;4997461;28;20027;-76
2021/10/18 11:32:25;;;;;;;7.03;4.18;;;22.80;94.30;;;;;;5006950;28;20100;-77
2021/10/18 11:35:07;;;;;;;8.82;3.70;;;22.90;94.10;;;;;;5012588;28;20104;-77
2021/10/18 11:38:11;;;;;;;6.35;3.17;;;23.10;93.00;;;;;;5007613;28;20045;-76
2021/10/18 11:40:48;;;;;;;6.40;3.65;;;23.30;92.30;;;;;;5009383;28;20367;-76
2021/10/18 11:43:25;;;;;;;9.60;3.38;;;23.50;91.80;;;;;;5004603;28;20176;-76
2021/10/18 11:45:56;;;;;;;11.60;3.33;;;23.50;92.00;;;;;;5007714;28;20113;-75
2021/10/18 11:48:24;;;;;;;6.15;3.00;;;23.50;91.60;;;;;;5006810;28;20500;-77
2021/10/18 11:50:52;;;;;;;5.90;2.90;;;23.40;91.30;;;;;;5011409;28;20030;-77
2021/10/18 11:53:25;;;;;;;7.75;3.63;;;23.10;91.80;;;;;;5004754;28;20109;-76
2021/10/18 11:55:53;;;;;;;5.50;3.17;;;23.00;91.60;;;;;;5003094;28;20033;-75
2021/10/18 11:58:23;;;;;;;5.65;3.45;;;22.70;92.20;;;;;;5008089;28;20021;-77
2021/10/18 12:01:02;;;;;;;8.15;3.33;;;22.70;92.40;;;;;;4998996;28;20097;-76
2021/10/18 12:03:30;;;;;;;8.80;3.20;;;22.50;92.40;;;;;;5010582;28;20117;-78
2021/10/18 12:05:58;;;;;;;5.82;3.40;;;22.30;92.30;;;;;;5008121;28;20038;-78
2021/10/18 12:08:32;;;;;;;5.20;3.58;;;22.10;91.70;;;;;;5003037;28;20026;-77
2021/10/18 12:11:00;;;;;;;8.68;3.40;;;22.00;91.60;;;;;;4998136;28;20093;-77
2021/10/18 12:13:31;;;;;;;7.65;3.35;;;22.00;91.10;;;;;;5004221;28;20030;-78
2021/10/18 12:15:56;;;;;;;4.22;3.03;;;21.90;91.30;;;;;;5005496;28;20415;-77
2021/10/18 12:18:42;;;;;;;4.88;3.08;;;21.70;91.40;;;;;;5010960;28;20092;-74
2021/10/18 12:21:28;;;;;;;5.95;2.70;;;21.50;92.00;;;;;;5008292;28;20037;-76
2021/10/18 12:24:03;;;;;;;8.15;3.15;;;21.20;92.10;;;;;;5000272;28;20041;-76
2021/10/18 12:26:39;;;;;;;6.22;3.55;;;21.20;91.90;;;;;;5008713;28;20033;-76
2021/10/18 12:29:10;;;;;;;10.07;3.40;;;21.10;92.10;;;;;;5001242;28;20064;-78
2021/10/18 12:31:50;;;;;;;5.45;3.95;;;21.00;92.20;;;;;;5007698;28;20026;-78
2021/10/18 12:34:24;;;;;;;5.63;3.63;;;20.90;92.40;;;;;;5012162;28;20552;-79
2021/10/18 12:37:05;;;;;;;7.72;3.67;;;20.80;92.20;;;;;;5000776;28;20062;-74
2021/10/18 12:39:55;;;;;;;7.18;3.83;;;20.70;92.30;;;;;;5005375;28;20026;-78
2021/10/18 12:42:21;;;;;;;5.65;3.47;;;20.50;91.50;;;;;;5012299;28;20050;-76
2021/10/18 12:44:50;;;;;;;4.25;2.92;;;20.40;91.60;;;;;;5006684;28;20038;-77
2021/10/18 12:47:23;;;;;;;4.35;3.50;;;20.30;92.10;;;;;;5013778;28;20037;-78
2021/10/18 12:49:53;;;;;;;4.60;3.10;;;20.20;91.90;;;;;;5013955;28;20022;-73
2021/10/18 12:52:29;;;;;;;18.50;3.20;;;20.20;92.30;;;;;;5014996;28;20465;-77
2021/10/18 12:54:55;;;;;;;4.53;3.15;;;20.10;92.30;;;;;;5013819;28;20160;-77
2021/10/18 12:57:26;;;;;;;4.75;3.45;;;20.10;92.20;;;;;;5014209;28;20722;-77
2021/10/18 13:00:02;;;;;;;6.93;3.10;;;20.10;93.30;;;;;;5009566;28;20030;-75
2021/10/18 13:02:36;;;;;;;4.32;3.42;;;20.10;93.30;;;;;;5003412;28;20026;-75
2021/10/18 13:05:08;;;;;;;8.43;3.67;;;20.00;93.30;;;;;;5002388;28;20390;-76
2021/10/18 13:07:36;;;;;;;6.28;3.47;;;19.90;93.10;;;;;;5002873;28;20129;-76
2021/10/18 13:10:03;;;;;;;8.82;4.30;;;19.80;93.50;;;;;;5007903;28;20443;-75
2021/10/18 13:12:29;;;;;;;6.40;3.45;;;19.70;93.90;;;;;;5008788;28;20030;-73
2021/10/18 13:14:56;;;;;;;7.35;3.40;;;19.70;94.20;;;;;;5003049;28;20056;-68
2021/10/18 13:17:24;;;;;;;9.77;3.97;;;19.60;94.60;;;;;;5003787;28;20069;-74
2021/10/18 13:19:51;;;;;;;6.85;3.80;;;19.50;95.30;;;;;;4999284;28;20031;-70
2021/10/18 13:22:17;;;;;;;9.00;3.63;;;19.50;95.60;;;;;;5000392;28;20387;-73
2021/10/18 13:24:43;;;;;;;9.82;3.63;;;19.40;96.00;;;;;;5009311;28;20501;-75
2021/10/18 13:27:09;;;;;;;5.07;3.60;;;19.50;96.60;;;;;;5010727;28;20034;-75
2021/10/18 13:29:35;;;;;;;6.93;3.92;;;19.40;96.10;;;;;;5012966;28;20041;-75
2021/10/18 13:32:04;;;;;;;7.55;3.85;;;19.40;96.60;;;;;;5009687;28;21221;-74
2021/10/18 13:34:34;;;;;;;6.38;4.40;;;19.40;97.10;;;;;;5024121;28;20073;-75
2021/10/18 13:37:01;;;;;;;9.30;3.95;;;19.40;97.20;;;;;;5008291;28;20030;-75
2021/10/18 13:39:27;;;;;;;8.25;3.53;;;19.40;97.50;;;;;;5027334;28;20030;-73
2021/10/18 13:41:53;;;;;;;9.18;4.43;;;19.40;97.70;;;;;;5012238;28;20053;-75
2021/10/18 13:44:19;;;;;;;9.77;4.35;;;19.40;97.60;;;;;;5010330;28;20030;-74
2021/10/18 13:46:46;;;;;;;8.05;3.85;;;19.30;97.80;;;;;;5009639;28;20116;-75
2021/10/18 13:49:11;;;;;;;7.68;4.45;;;19.30;97.70;;;;;;5011699;28;20083;-76
2021/10/18 13:51:38;;;;;;;9.35;4.75;;;19.20;98.30;;;;;;5012595;28;20065;-75
2021/10/18 13:54:04;;;;;;;9.82;4.82;;;19.30;97.90;;;;;;5012277;28;20129;-74
2021/10/18 13:56:30;;;;;;;7.30;5.22;;;19.20;97.90;;;;;;5028298;28;20522;-75
2021/10/18 13:58:55;;;;;;;7.80;4.25;;;19.20;98.00;;;;;;5011269;28;20124;-74
2021/10/18 14:01:21;;;;;;;10.27;4.07;;;19.20;98.30;;;;;;5011813;28;20034;-75